CPA150 YBBN-VHHH
Flight info
| Callsign | CPA150 |
|---|---|
| Flight time | N/A |
| Altitude | 38000 |
| Route | WACKO V250 IBUNA Q473 IGUPI V129 EML DCT 21S145E 17S143E 13S141E/N0487F400 DCT OPABA B473 DAO W8 MCT W11 MIA W16 AVMUP A461 NOMAN V533 BETTY |
| Aircraft | A359/H-SABDE2E3GHIJ1J2J3J4J5LM1OP2RVWXYZ/LB1D1G1 |
Departure
| Time | N/A |
|---|---|
| Airport | Brisbane International Airport (YBBN) |
Arrival
| Time | 2026-05-07 11:18 |
|---|---|
| Airport | Hong Kong International Airport (VHHH) |
| Time | Latitude | Longitude | Altitude | Speed | Heading |
|---|---|---|---|---|---|
| 2026-05-07 11:18 | 22.32317 | 113.92440 | 42 ft | 0 kts | 161° |
| 2026-05-07 11:18 | 22.32312 | 113.92442 | 42 ft | 4 kts | 161° |
| 2026-05-07 11:18 | 22.32268 | 113.92458 | 42 ft | 9 kts | 160° |
| 2026-05-07 11:19 | 22.32247 | 113.92511 | 42 ft | 9 kts | 80° |
| 2026-05-07 11:19 | 22.32269 | 113.92585 | 42 ft | 12 kts | 71° |
| 2026-05-07 11:19 | 22.32257 | 113.92654 | 40 ft | 10 kts | 143° |
| 2026-05-07 11:19 | 22.32186 | 113.92684 | 42 ft | 12 kts | 161° |
| 2026-05-07 11:20 | 22.32095 | 113.92718 | 42 ft | 15 kts | 160° |
| 2026-05-07 11:20 | 22.31988 | 113.92759 | 42 ft | 17 kts | 160° |
| 2026-05-07 11:20 | 22.31889 | 113.92799 | 42 ft | 15 kts | 155° |
| 2026-05-07 11:20 | 22.31786 | 113.92849 | 42 ft | 15 kts | 157° |
| 2026-05-07 11:21 | 22.31700 | 113.92881 | 42 ft | 13 kts | 161° |
| 2026-05-07 11:21 | 22.31604 | 113.92917 | 41 ft | 13 kts | 161° |
| 2026-05-07 11:21 | 22.31588 | 113.92923 | 41 ft | 7 kts | 161° |
| 2026-05-07 11:21 | 22.31552 | 113.92967 | 41 ft | 9 kts | 97° |
| 2026-05-07 11:22 | 22.31571 | 113.93038 | 41 ft | 11 kts | 71° |
| 2026-05-07 11:22 | 22.31579 | 113.93063 | 41 ft | 4 kts | 71° |
| 2026-05-07 11:22 | 22.31572 | 113.93101 | 40 ft | 5 kts | 132° |
| 2026-05-07 11:22 | 22.31538 | 113.93119 | 41 ft | 6 kts | 158° |
| 2026-05-07 11:23 | 22.31523 | 113.93124 | 41 ft | 5 kts | 161° |
| 2026-05-07 11:23 | 22.31501 | 113.93132 | 41 ft | 1 kts | 161° |
| 2026-05-07 11:23 | 22.31499 | 113.93133 | 41 ft | 0 kts | 161° |
| 2026-05-07 11:43 | 22.31500 | 113.93133 | 14 ft | 0 kts | 161° |